createdAt,value
2022-10-16T00:02:25.076Z,22.53
2022-10-16T00:05:14.968Z,22.50
2022-10-16T00:08:04.923Z,22.46
2022-10-16T00:10:54.623Z,22.41
2022-10-16T00:13:47.275Z,22.35
2022-10-16T00:16:37.766Z,22.31
2022-10-16T00:19:27.758Z,22.28
2022-10-16T00:22:17.528Z,22.25
2022-10-16T00:25:08.446Z,22.21
2022-10-16T00:27:58.527Z,22.18
2022-10-16T00:30:48.616Z,22.15
2022-10-16T00:33:40.449Z,22.11
2022-10-16T00:36:31.855Z,22.08
2022-10-16T00:39:23.607Z,22.05
2022-10-16T00:42:19.057Z,22.02
2022-10-16T00:45:11.804Z,21.99
2022-10-16T00:48:02.346Z,21.97
2022-10-16T00:50:52.714Z,21.94
2022-10-16T00:53:43.101Z,21.91
2022-10-16T00:56:34.380Z,21.89
2022-10-16T00:59:27.973Z,21.87
2022-10-16T01:02:19.845Z,21.86
2022-10-16T01:05:11.410Z,21.84
2022-10-16T01:08:11.416Z,21.81
2022-10-16T01:11:09.812Z,21.78
2022-10-16T01:14:04.325Z,21.75
2022-10-16T01:17:00.539Z,21.73
2022-10-16T01:20:07.647Z,21.70
2022-10-16T01:23:23.476Z,21.68
2022-10-16T01:26:23.042Z,21.65
2022-10-16T01:29:20.894Z,21.62
2022-10-16T01:32:17.632Z,21.60
2022-10-16T01:35:12.000Z,21.58
2022-10-16T01:38:07.030Z,21.56
2022-10-16T01:41:03.211Z,21.53
2022-10-16T01:43:59.158Z,21.51
2022-10-16T01:46:52.989Z,21.49
2022-10-16T01:49:45.211Z,21.47
2022-10-16T01:52:37.226Z,21.45
2022-10-16T01:55:35.416Z,21.42
2022-10-16T01:58:27.549Z,21.40
2022-10-16T02:01:21.203Z,21.40
2022-10-16T02:04:18.932Z,21.39
2022-10-16T02:07:09.191Z,21.39
2022-10-16T02:09:59.522Z,21.41
2022-10-16T02:12:53.231Z,21.42
2022-10-16T02:15:43.673Z,21.44
2022-10-16T02:18:34.372Z,21.46
2022-10-16T02:21:29.725Z,21.45
2022-10-16T02:24:26.431Z,21.44
2022-10-16T02:27:26.214Z,21.43
2022-10-16T02:30:21.821Z,21.44
2022-10-16T02:33:15.332Z,21.43
2022-10-16T02:36:05.994Z,21.42
2022-10-16T02:38:57.738Z,21.41
2022-10-16T02:41:48.489Z,21.40
2022-10-16T02:44:38.580Z,21.39
2022-10-16T02:47:28.584Z,21.39
2022-10-16T02:50:19.068Z,21.38
2022-10-16T02:53:09.214Z,21.37
2022-10-16T02:55:59.739Z,21.35
2022-10-16T02:58:50.173Z,21.34
2022-10-16T03:01:40.417Z,21.34
2022-10-16T03:04:30.799Z,21.35
2022-10-16T03:07:20.931Z,21.36
2022-10-16T03:10:12.484Z,21.38
2022-10-16T03:13:02.357Z,21.39
2022-10-16T03:15:52.351Z,21.40
2022-10-16T03:18:42.565Z,21.41
2022-10-16T03:21:32.088Z,21.41
2022-10-16T03:24:22.019Z,21.42
2022-10-16T03:27:12.411Z,21.42
2022-10-16T03:30:02.551Z,21.42
2022-10-16T03:32:55.303Z,21.43
2022-10-16T03:35:45.026Z,21.45
2022-10-16T03:38:35.065Z,21.47
2022-10-16T03:41:25.204Z,21.48
2022-10-16T03:44:15.289Z,21.49
2022-10-16T03:47:04.944Z,21.50
2022-10-16T03:49:54.852Z,21.50
2022-10-16T03:52:44.693Z,21.50
2022-10-16T03:55:34.403Z,21.49
2022-10-16T03:58:24.505Z,21.49
2022-10-16T04:01:14.545Z,21.49
2022-10-16T04:04:04.864Z,21.49
2022-10-16T04:06:54.870Z,21.48
2022-10-16T04:09:44.797Z,21.49
2022-10-16T04:12:34.545Z,21.49
2022-10-16T04:15:24.851Z,21.49
2022-10-16T04:18:15.643Z,21.49
2022-10-16T04:21:08.711Z,21.49
2022-10-16T04:23:58.702Z,21.49
2022-10-16T04:26:48.292Z,21.50
2022-10-16T04:29:38.124Z,21.49
2022-10-16T04:32:28.132Z,21.48
2022-10-16T04:35:19.854Z,21.47
2022-10-16T04:38:10.133Z,21.44
2022-10-16T04:41:01.357Z,21.43
2022-10-16T04:43:51.855Z,21.43
2022-10-16T04:46:41.807Z,21.43
2022-10-16T04:49:31.782Z,21.42
2022-10-16T04:52:22.788Z,21.42
2022-10-16T04:55:13.490Z,21.41
2022-10-16T04:58:03.821Z,21.42
2022-10-16T05:00:53.703Z,21.42
2022-10-16T05:03:44.412Z,21.42
2022-10-16T05:06:34.980Z,21.43
2022-10-16T05:09:25.133Z,21.45
2022-10-16T05:12:15.393Z,21.46
2022-10-16T05:15:06.026Z,21.46
2022-10-16T05:17:57.812Z,21.46
2022-10-16T05:20:48.079Z,21.47
2022-10-16T05:23:38.066Z,21.46
2022-10-16T05:26:28.006Z,21.47
2022-10-16T05:29:17.858Z,21.46
2022-10-16T05:32:07.501Z,21.45
2022-10-16T05:34:57.325Z,21.44
2022-10-16T05:37:47.374Z,21.44
2022-10-16T05:40:37.363Z,21.44
2022-10-16T05:43:29.123Z,21.45
2022-10-16T05:46:19.660Z,21.46
2022-10-16T05:49:09.365Z,21.48
2022-10-16T05:51:59.134Z,21.50
2022-10-16T05:54:48.815Z,21.61
2022-10-16T05:57:39.619Z,21.78
2022-10-16T06:00:29.960Z,21.94
2022-10-16T06:03:20.258Z,22.06
2022-10-16T06:06:15.386Z,22.17
2022-10-16T06:09:06.420Z,22.27
2022-10-16T06:11:56.327Z,22.35
2022-10-16T06:14:47.927Z,22.42
2022-10-16T06:17:38.180Z,22.45
2022-10-16T06:20:28.435Z,22.45
2022-10-16T06:23:18.603Z,22.49
2022-10-16T06:26:13.679Z,22.49
2022-10-16T06:29:04.110Z,22.47
2022-10-16T06:31:54.430Z,22.46
2022-10-16T06:34:44.367Z,22.48
2022-10-16T06:37:34.404Z,22.52
2022-10-16T06:40:24.463Z,22.57
2022-10-16T06:43:15.161Z,22.62
2022-10-16T06:46:06.162Z,22.66
2022-10-16T06:48:56.189Z,22.70
2022-10-16T06:51:46.010Z,22.75
2022-10-16T06:54:42.029Z,22.78
2022-10-16T06:57:33.042Z,22.80
2022-10-16T07:03:19.578Z,22.82
2022-10-16T07:06:13.148Z,22.80
2022-10-16T07:09:06.232Z,22.80
2022-10-16T07:11:56.307Z,22.81
2022-10-16T07:14:46.737Z,22.84
2022-10-16T07:17:36.656Z,22.87
2022-10-16T07:20:26.429Z,22.91
2022-10-16T07:23:16.322Z,22.93
2022-10-16T07:26:07.252Z,22.93
2022-10-16T07:28:57.951Z,22.94
2022-10-16T07:31:48.977Z,22.96
2022-10-16T07:34:38.792Z,23.01
2022-10-16T07:37:29.512Z,23.08
2022-10-16T07:40:19.820Z,23.16
2022-10-16T07:43:09.402Z,23.24
2022-10-16T07:46:02.470Z,23.30
2022-10-16T07:48:55.524Z,23.32
2022-10-16T07:51:45.538Z,23.35
2022-10-16T07:54:35.776Z,23.44
2022-10-16T07:57:26.854Z,23.53
2022-10-16T08:00:18.520Z,23.64
2022-10-16T08:03:08.808Z,23.74
2022-10-16T08:06:00.668Z,23.80
2022-10-16T08:08:50.926Z,23.86
2022-10-16T08:11:41.232Z,23.91
2022-10-16T08:14:31.517Z,23.95
2022-10-16T08:17:21.284Z,24.04
2022-10-16T08:20:13.654Z,24.11
2022-10-16T08:23:04.185Z,24.18
2022-10-16T08:25:55.261Z,24.28
2022-10-16T08:28:44.999Z,24.40
2022-10-16T08:31:35.451Z,24.52
2022-10-16T08:34:25.365Z,24.59
2022-10-16T08:37:15.894Z,24.66
2022-10-16T08:40:08.060Z,24.73
2022-10-16T08:43:27.373Z,24.83
2022-10-16T08:46:30.274Z,25.06
2022-10-16T08:49:21.053Z,25.78
2022-10-16T08:52:15.626Z,26.95
2022-10-16T08:55:06.813Z,28.34
2022-10-16T08:57:57.191Z,29.53
2022-10-16T09:00:49.948Z,30.68
2022-10-16T09:03:55.511Z,31.49
2022-10-16T09:06:53.772Z,31.66
2022-10-16T09:10:01.880Z,31.67
2022-10-16T09:13:00.475Z,31.63
2022-10-16T09:15:57.201Z,31.47
2022-10-16T09:18:53.058Z,31.16
2022-10-16T09:21:46.540Z,30.77
2022-10-16T09:24:36.329Z,30.31
2022-10-16T09:27:26.918Z,29.77
2022-10-16T09:30:20.766Z,29.22
2022-10-16T09:33:13.170Z,28.65
2022-10-16T09:36:05.611Z,28.14
2022-10-16T09:39:08.069Z,27.73
2022-10-16T09:41:58.892Z,27.33
2022-10-16T09:44:52.220Z,26.99
2022-10-16T09:47:45.591Z,26.75
2022-10-16T09:50:35.514Z,26.57
2022-10-16T09:53:25.497Z,26.49
2022-10-16T09:56:24.399Z,26.49
2022-10-16T09:59:16.508Z,26.44
2022-10-16T10:02:16.703Z,26.37
2022-10-16T10:05:19.335Z,26.26
2022-10-16T10:08:18.023Z,26.15
2022-10-16T10:11:07.456Z,26.07
2022-10-16T10:14:07.983Z,26.05
2022-10-16T10:17:14.034Z,26.08
2022-10-16T10:20:17.549Z,26.19
2022-10-16T10:23:24.432Z,26.23
2022-10-16T10:26:20.528Z,26.20
2022-10-16T10:29:18.312Z,26.18
2022-10-16T10:32:22.001Z,26.12
2022-10-16T10:35:21.863Z,26.01
2022-10-16T10:38:25.557Z,25.87
2022-10-16T10:41:43.516Z,25.78
2022-10-16T10:44:53.735Z,25.69
2022-10-16T10:47:51.281Z,25.60
2022-10-16T10:50:45.605Z,25.51
2022-10-16T10:53:46.841Z,25.45
2022-10-16T10:56:49.508Z,25.38
2022-10-16T11:00:00.757Z,25.34
2022-10-16T11:02:57.320Z,25.30
2022-10-16T11:05:52.629Z,25.28
2022-10-16T11:08:47.797Z,25.29
2022-10-16T11:11:43.583Z,25.29
2022-10-16T11:14:37.253Z,25.32
2022-10-16T11:17:30.827Z,25.36
2022-10-16T11:20:25.238Z,25.37
2022-10-16T11:23:24.108Z,25.40
2022-10-16T11:26:20.747Z,25.38
2022-10-16T11:29:18.614Z,25.33
2022-10-16T11:32:22.063Z,25.31
2022-10-16T11:35:21.980Z,25.31
2022-10-16T11:38:17.973Z,25.27
2022-10-16T11:41:17.853Z,25.19
2022-10-16T11:44:30.985Z,25.17
2022-10-16T11:50:51.585Z,25.20
2022-10-16T11:53:53.364Z,25.25
2022-10-16T11:56:46.988Z,25.31
2022-10-16T11:59:44.765Z,25.36
2022-10-16T12:02:42.781Z,25.40
2022-10-16T12:05:48.846Z,25.45
2022-10-16T12:08:39.756Z,25.51
2022-10-16T12:11:39.014Z,25.54
2022-10-16T12:15:14.692Z,25.59
2022-10-16T12:17:56.180Z,25.61
2022-10-16T12:21:00.157Z,25.67
2022-10-16T12:23:56.052Z,25.75
2022-10-16T12:26:48.747Z,25.73
2022-10-16T12:29:41.538Z,25.70
2022-10-16T12:32:52.467Z,25.73
2022-10-16T12:35:48.905Z,25.72
2022-10-16T12:38:49.734Z,25.69
2022-10-16T12:41:41.263Z,25.69
2022-10-16T12:44:36.863Z,25.68
2022-10-16T12:47:47.989Z,25.65
2022-10-16T12:50:41.970Z,25.61
2022-10-16T12:53:32.913Z,25.58
2022-10-16T12:56:33.616Z,25.54
2022-10-16T12:59:36.566Z,25.52
2022-10-16T13:02:59.565Z,25.54
2022-10-16T13:06:02.614Z,25.54
2022-10-16T13:09:13.166Z,25.55
2022-10-16T13:12:18.083Z,25.58
2022-10-16T13:15:28.988Z,25.64
2022-10-16T13:18:24.497Z,25.69
2022-10-16T13:21:30.618Z,25.69
2022-10-16T13:24:38.875Z,25.70
2022-10-16T13:27:36.807Z,25.70
2022-10-16T13:30:30.706Z,25.66
2022-10-16T13:33:26.347Z,25.62
2022-10-16T13:36:25.448Z,25.60
2022-10-16T13:39:23.268Z,25.60
2022-10-16T13:42:17.677Z,25.58
2022-10-16T13:45:20.095Z,25.57
2022-10-16T13:48:14.399Z,25.54
2022-10-16T13:51:07.204Z,25.50
2022-10-16T13:53:59.145Z,25.47
2022-10-16T13:56:57.749Z,25.47
2022-10-16T13:59:53.138Z,25.47
2022-10-16T14:02:44.554Z,25.45
2022-10-16T14:05:34.745Z,25.40
2022-10-16T14:08:26.865Z,25.34
2022-10-16T14:11:22.897Z,25.29
2022-10-16T14:14:15.111Z,25.25
2022-10-16T14:17:06.051Z,25.24
2022-10-16T14:20:00.916Z,25.20
2022-10-16T14:23:02.467Z,25.14
2022-10-16T14:25:52.388Z,25.07
2022-10-16T14:28:44.113Z,25.01
2022-10-16T14:31:37.521Z,24.93
2022-10-16T14:34:31.497Z,24.83
2022-10-16T14:37:29.371Z,24.70
2022-10-16T14:40:20.284Z,24.59
2022-10-16T14:43:20.354Z,24.51
2022-10-16T14:46:17.168Z,24.46
2022-10-16T14:49:20.206Z,24.42
2022-10-16T14:52:14.562Z,24.34
2022-10-16T14:55:04.945Z,24.28
2022-10-16T14:57:58.348Z,24.23
2022-10-16T15:00:51.304Z,24.20
2022-10-16T15:03:41.933Z,24.18
2022-10-16T15:06:31.925Z,24.13
2022-10-16T15:09:22.072Z,24.06
2022-10-16T15:12:12.416Z,24.03
2022-10-16T15:15:02.092Z,24.00
2022-10-16T15:17:53.806Z,23.95
2022-10-16T15:20:44.346Z,23.93
2022-10-16T15:23:34.116Z,23.91
2022-10-16T15:26:24.226Z,23.90
2022-10-16T15:29:14.794Z,23.87
2022-10-16T15:32:05.232Z,23.85
2022-10-16T15:34:55.847Z,23.83
2022-10-16T15:37:45.760Z,23.80
2022-10-16T15:40:36.073Z,23.76
2022-10-16T15:43:26.480Z,23.75
2022-10-16T15:46:17.234Z,23.73
2022-10-16T15:49:08.015Z,23.69
2022-10-16T15:51:58.649Z,23.65
2022-10-16T15:54:53.417Z,23.61
2022-10-16T15:57:45.209Z,23.57
2022-10-16T16:00:35.320Z,23.55
2022-10-16T16:03:25.627Z,23.54
2022-10-16T16:06:17.084Z,23.55
2022-10-16T16:09:06.875Z,23.57
2022-10-16T16:11:56.983Z,23.59
2022-10-16T16:14:49.630Z,23.61
2022-10-16T16:17:40.161Z,23.63
2022-10-16T16:20:30.536Z,23.66
2022-10-16T16:23:21.452Z,23.67
2022-10-16T16:26:15.674Z,23.67
2022-10-16T16:29:06.369Z,23.67
2022-10-16T16:31:58.344Z,23.66
2022-10-16T16:34:48.514Z,23.66
2022-10-16T16:37:38.539Z,23.66
2022-10-16T16:40:29.707Z,23.64
2022-10-16T16:43:19.841Z,23.62
2022-10-16T16:46:10.570Z,23.59
2022-10-16T16:49:02.013Z,23.58
2022-10-16T16:51:52.697Z,23.56
2022-10-16T16:54:42.936Z,23.54
2022-10-16T16:57:33.435Z,23.52
2022-10-16T17:00:23.549Z,23.50
2022-10-16T17:03:14.523Z,23.48
2022-10-16T17:06:06.660Z,23.47
2022-10-16T17:08:56.459Z,23.46
2022-10-16T17:11:47.051Z,23.46
2022-10-16T17:14:37.102Z,23.44
2022-10-16T17:17:26.963Z,23.43
2022-10-16T17:20:17.409Z,23.42
2022-10-16T17:23:07.051Z,23.41
2022-10-16T17:25:57.384Z,23.41
2022-10-16T17:28:48.044Z,23.40
2022-10-16T17:31:39.442Z,23.39
2022-10-16T17:34:29.572Z,23.38
2022-10-16T17:37:19.833Z,23.37
2022-10-16T17:43:03.111Z,23.35
2022-10-16T17:45:52.877Z,23.34
2022-10-16T17:48:44.483Z,23.33
2022-10-16T17:51:34.742Z,23.31
2022-10-16T17:54:24.816Z,23.30
2022-10-16T17:57:15.253Z,23.29
2022-10-16T18:00:05.221Z,23.27
2022-10-16T18:02:55.058Z,23.26
2022-10-16T18:05:45.140Z,23.25
2022-10-16T18:08:36.717Z,23.23
2022-10-16T18:11:28.101Z,23.22
2022-10-16T18:14:19.597Z,23.20
2022-10-16T18:17:10.154Z,23.19
2022-10-16T18:20:00.572Z,23.17
2022-10-16T18:22:50.710Z,23.17
2022-10-16T18:25:40.774Z,23.16
2022-10-16T18:28:32.490Z,23.15
2022-10-16T18:31:25.773Z,23.14
2022-10-16T18:34:16.359Z,23.14
2022-10-16T18:37:06.099Z,23.14
2022-10-16T18:39:55.761Z,23.12
2022-10-16T18:42:45.693Z,23.10
2022-10-16T18:45:35.948Z,23.09
2022-10-16T18:48:25.989Z,23.07
2022-10-16T18:51:20.004Z,23.04
2022-10-16T18:54:12.989Z,23.01
2022-10-16T18:57:03.294Z,22.98
2022-10-16T18:59:53.800Z,22.96
2022-10-16T19:02:43.621Z,22.92
2022-10-16T19:05:36.392Z,22.89
2022-10-16T19:08:26.713Z,22.87
2022-10-16T19:11:18.591Z,22.98
2022-10-16T19:14:08.841Z,23.15
2022-10-16T19:16:59.541Z,23.21
2022-10-16T19:19:49.424Z,23.18
2022-10-16T19:22:54.168Z,23.12
2022-10-16T19:25:44.135Z,23.07
2022-10-16T19:28:34.181Z,23.04
2022-10-16T19:31:26.484Z,23.00
2022-10-16T19:34:16.646Z,22.98
2022-10-16T19:37:06.492Z,22.95
2022-10-16T19:39:56.338Z,22.91
2022-10-16T19:42:48.515Z,22.86
2022-10-16T19:45:38.333Z,22.82
2022-10-16T19:48:30.050Z,22.79
2022-10-16T19:51:21.289Z,22.75
2022-10-16T19:54:13.340Z,22.71
2022-10-16T19:57:03.489Z,22.68
2022-10-16T19:59:56.055Z,22.67
2022-10-16T20:02:46.133Z,22.65
2022-10-16T20:05:36.075Z,22.62
2022-10-16T20:08:26.885Z,22.60
2022-10-16T20:11:18.185Z,22.58
2022-10-16T20:14:08.969Z,22.57
2022-10-16T20:16:58.959Z,22.54
2022-10-16T20:19:48.759Z,22.54
2022-10-16T20:22:38.419Z,22.55
2022-10-16T20:25:28.382Z,22.57
2022-10-16T20:28:20.669Z,22.58
2022-10-16T20:31:12.317Z,22.60
2022-10-16T20:34:06.293Z,22.60
2022-10-16T20:36:56.250Z,22.59
2022-10-16T20:39:46.113Z,22.57
2022-10-16T20:42:35.730Z,22.55
2022-10-16T20:45:26.071Z,22.53
2022-10-16T20:48:17.020Z,22.52
2022-10-16T20:51:16.861Z,22.52
2022-10-16T20:54:08.897Z,22.50
2022-10-16T20:56:59.354Z,22.49
2022-10-16T20:59:50.976Z,22.48
2022-10-16T21:02:41.482Z,22.44
2022-10-16T21:05:31.882Z,22.40
2022-10-16T21:08:21.587Z,22.36
2022-10-16T21:11:17.075Z,22.32
2022-10-16T21:14:08.460Z,22.27
2022-10-16T21:16:58.280Z,22.22
2022-10-16T21:19:48.241Z,22.17
2022-10-16T21:22:38.152Z,22.13
2022-10-16T21:25:27.893Z,22.10
2022-10-16T21:28:18.200Z,22.08
2022-10-16T21:31:18.971Z,22.06
2022-10-16T21:34:08.899Z,22.06
2022-10-16T21:36:58.557Z,22.05
2022-10-16T21:39:48.827Z,22.02
2022-10-16T21:42:38.975Z,21.99
2022-10-16T21:45:28.894Z,21.98
2022-10-16T21:48:19.994Z,21.97
2022-10-16T21:51:11.108Z,21.94
2022-10-16T21:54:01.709Z,21.91
2022-10-16T21:56:52.509Z,21.89
2022-10-16T21:59:42.120Z,21.87
2022-10-16T22:02:31.844Z,21.85
2022-10-16T22:05:21.641Z,21.83
2022-10-16T22:08:12.548Z,21.82
2022-10-16T22:11:07.433Z,21.81
2022-10-16T22:13:58.155Z,21.79
2022-10-16T22:16:49.079Z,21.78
2022-10-16T22:19:39.056Z,21.78
2022-10-16T22:22:29.433Z,21.77
2022-10-16T22:25:19.147Z,21.75
2022-10-16T22:28:09.403Z,21.76
2022-10-16T22:31:01.876Z,21.75
2022-10-16T22:33:56.847Z,21.75
2022-10-16T22:36:49.602Z,21.75
2022-10-16T22:39:40.234Z,21.74
2022-10-16T22:42:30.460Z,21.74
2022-10-16T22:45:21.167Z,21.75
2022-10-16T22:48:12.681Z,21.75
2022-10-16T22:51:03.534Z,21.75
2022-10-16T22:53:53.900Z,21.74
2022-10-16T22:56:44.611Z,21.72
2022-10-16T22:59:35.501Z,21.70
2022-10-16T23:02:25.931Z,21.69
2022-10-16T23:05:16.127Z,21.67
2022-10-16T23:08:07.190Z,21.67
2022-10-16T23:11:00.934Z,21.66
2022-10-16T23:13:51.993Z,21.65
2022-10-16T23:16:42.062Z,21.65
2022-10-16T23:19:32.576Z,21.63
2022-10-16T23:22:22.790Z,21.61
2022-10-16T23:25:13.057Z,21.61
2022-10-16T23:28:02.941Z,21.61
2022-10-16T23:30:52.945Z,21.60
2022-10-16T23:33:43.212Z,21.59
2022-10-16T23:36:33.403Z,21.58
2022-10-16T23:39:24.037Z,21.57
2022-10-16T23:42:14.496Z,21.55
2022-10-16T23:45:04.702Z,21.54
2022-10-16T23:47:55.088Z,21.55
2022-10-16T23:50:45.380Z,21.55
2022-10-16T23:53:35.775Z,21.55
2022-10-16T23:56:25.982Z,21.55
2022-10-16T23:59:15.877Z,21.53
